Time;durP1;ratioP1;P1;durP2;ratioP2;P2;SDS_P1;SDS_P2;PMS_P1;PMS_P2;Temp;Humidity;BMP_temperature;BMP_pressure;BME280_temperature;BME280_humidity;BME280_pressure;Samples;Min_cycle;Max_cycle;Signal;HPM_P1;HPM_P2
2022/04/04 00:00:37;;;;;;;39.70;37.47;;;;;;;4.29;100.00;101357.72;5078495;28;20044;-78
2022/04/04 00:03:04;;;;;;;39.90;37.15;;;;;;;3.77;100.00;101369.78;5085655;28;20109;-78
2022/04/04 00:05:32;;;;;;;38.40;36.38;;;;;;;4.40;100.00;101376.91;5081322;28;20040;-79
2022/04/04 00:07:59;;;;;;;36.28;33.78;;;;;;;3.34;100.00;101377.25;5090241;28;20044;-77
2022/04/04 00:10:26;;;;;;;37.13;34.78;;;;;;;3.35;100.00;101372.84;5084781;28;20063;-78
2022/04/04 00:12:53;;;;;;;44.33;41.53;;;;;;;3.20;100.00;101368.03;5080747;28;20051;-78
2022/04/04 00:15:20;;;;;;;44.67;41.95;;;;;;;3.74;100.00;101370.91;5083375;28;20044;-79
2022/04/04 00:17:47;;;;;;;36.20;33.60;;;;;;;3.21;100.00;101385.47;5087292;28;20547;-79
2022/04/04 00:20:14;;;;;;;35.47;33.00;;;;;;;3.34;100.00;101387.78;5093061;28;20048;-77
2022/04/04 00:22:43;;;;;;;40.05;37.60;;;;;;;3.35;100.00;101385.97;5086451;28;20052;-78
2022/04/04 00:25:10;;;;;;;41.38;38.58;;;;;;;3.11;100.00;101384.63;5089201;28;20051;-78
2022/04/04 00:27:37;;;;;;;44.85;42.15;;;;;;;4.00;100.00;101384.19;5092554;28;20051;-78
2022/04/04 00:30:04;;;;;;;39.33;36.85;;;;;;;3.70;100.00;101384.47;5083426;28;20482;-78
2022/04/04 00:32:31;;;;;;;34.53;32.28;;;;;;;3.28;100.00;101388.34;5089474;28;20420;-78
2022/04/04 00:35:00;;;;;;;35.45;33.08;;;;;;;3.71;100.00;101386.94;5091885;28;20040;-78
2022/04/04 00:37:27;;;;;;;34.50;32.42;;;;;;;5.17;100.00;101391.19;5081437;28;20496;-78
2022/04/04 00:39:55;;;;;;;43.72;40.72;;;;;;;3.62;100.00;101377.31;5085188;28;20528;-78
2022/04/04 00:42:22;;;;;;;36.25;33.75;;;;;;;3.49;100.00;101397.81;5092647;28;20112;-79
2022/04/04 00:44:51;;;;;;;42.30;39.30;;;;;;;3.28;100.00;101396.22;5091344;28;20040;-78
2022/04/04 00:47:18;;;;;;;51.13;47.90;;;;;;;3.12;100.00;101395.97;5092410;28;20504;-78
2022/04/04 00:49:44;;;;;;;40.15;37.42;;;;;;;2.94;100.00;101398.47;5087764;28;20098;-78
2022/04/04 00:52:11;;;;;;;44.45;41.55;;;;;;;2.96;100.00;101396.53;5087629;28;20093;-78
2022/04/04 00:54:38;;;;;;;50.50;47.25;;;;;;;2.91;100.00;101393.53;5092720;28;20105;-79
2022/04/04 00:57:06;;;;;;;39.45;36.92;;;;;;;3.60;100.00;101392.38;5092294;28;20044;-78
2022/04/04 00:59:35;;;;;;;46.13;42.97;;;;;;;3.47;100.00;101395.31;5092185;28;20056;-78
2022/04/04 01:02:02;;;;;;;45.05;41.88;;;;;;;3.05;100.00;101387.00;5092233;28;20400;-78
2022/04/04 01:04:29;;;;;;;40.50;37.60;;;;;;;3.12;100.00;101382.84;5091740;28;20055;-78
2022/04/04 01:06:56;;;;;;;38.70;36.45;;;;;;;4.09;100.00;101387.75;5085548;28;20048;-78
2022/04/04 01:09:22;;;;;;;42.13;39.03;;;;;;;2.66;100.00;101395.72;5092523;28;20106;-78
2022/04/04 01:12:02;;;;;;;41.78;38.97;;;;;;;2.86;100.00;101406.22;5094212;28;20094;-79
2022/04/04 01:14:31;;;;;;;38.08;35.60;;;;;;;3.30;100.00;101404.78;5095115;28;20071;-78
2022/04/04 01:16:58;;;;;;;41.92;39.13;;;;;;;3.11;100.00;101405.63;5096072;28;20040;-78
2022/04/04 01:19:24;;;;;;;40.03;37.25;;;;;;;2.95;100.00;101397.50;5095657;28;20036;-78
2022/04/04 01:21:53;;;;;;;43.33;40.38;;;;;;;3.28;100.00;101396.22;5095773;28;20572;-79
2022/04/04 01:24:22;;;;;;;43.60;40.60;;;;;;;3.47;100.00;101405.84;5095405;28;20135;-78
2022/04/04 01:26:49;;;;;;;45.92;42.78;;;;;;;2.93;100.00;101402.06;5095260;28;20048;-78
2022/04/04 01:29:16;;;;;;;43.10;40.10;;;;;;;3.85;100.00;101402.25;5092338;28;20100;-79
2022/04/04 01:31:43;;;;;;;48.65;45.30;;;;;;;3.38;100.00;101410.13;5095829;28;20043;-78
2022/04/04 01:34:10;;;;;;;47.15;44.28;;;;;;;3.06;100.00;101401.78;5094401;28;20052;-79
2022/04/04 01:36:37;;;;;;;51.25;47.85;;;;;;;2.78;100.00;101408.69;5093779;28;20109;-78
2022/04/04 01:39:04;;;;;;;43.53;40.47;;;;;;;3.09;100.00;101415.47;5095992;28;20052;-78
2022/04/04 01:41:32;;;;;;;45.55;41.83;;;;;;;2.54;100.00;101412.53;5095756;28;20477;-78
2022/04/04 01:43:59;;;;;;;49.30;46.00;;;;;;;2.58;100.00;101413.13;5094804;28;20052;-78
2022/04/04 01:46:27;;;;;;;53.28;49.83;;;;;;;2.50;100.00;101406.75;5090047;28;20047;-78
2022/04/04 01:48:55;;;;;;;56.20;52.42;;;;;;;2.59;100.00;101415.59;5095454;28;20135;-78
2022/04/04 01:51:22;;;;;;;55.28;51.90;;;;;;;3.21;100.00;101422.22;5087783;28;20623;-78
2022/04/04 01:53:49;;;;;;;62.05;57.90;;;;;;;2.62;100.00;101428.44;5095599;28;20564;-78
2022/04/04 01:56:16;;;;;;;51.92;48.13;;;;;;;2.48;100.00;101426.19;5092975;28;20044;-78
2022/04/04 01:58:45;;;;;;;54.33;50.53;;;;;;;2.96;100.00;101422.78;5092291;28;20044;-78
2022/04/04 02:01:15;;;;;;;44.30;41.22;;;;;;;3.13;100.00;101429.94;5084951;28;20052;-79
2022/04/04 02:03:43;;;;;;;47.17;43.88;;;;;;;3.13;100.00;101416.00;5091765;28;20480;-78
2022/04/04 02:06:10;;;;;;;57.83;53.83;;;;;;;2.71;100.00;101416.28;5088928;28;20503;-78
2022/04/04 02:08:37;;;;;;;52.58;49.33;;;;;;;2.93;100.00;101426.50;5094756;28;20048;-78
2022/04/04 02:11:04;;;;;;;57.45;53.40;;;;;;;2.52;100.00;101422.34;5094251;28;20048;-79
2022/04/04 02:13:32;;;;;;;56.30;52.50;;;;;;;3.34;100.00;101432.41;5090517;28;20429;-79
2022/04/04 02:16:02;;;;;;;49.92;46.20;;;;;;;2.67;100.00;101422.78;5084150;28;20051;-78
2022/04/04 02:18:30;;;;;;;48.00;44.53;;;;;;;3.03;100.00;101428.31;5088226;28;20048;-78
2022/04/04 02:20:58;;;;;;;46.00;42.78;;;;;;;3.99;100.00;101429.00;5095534;28;20101;-78
2022/04/04 02:23:26;;;;;;;46.33;42.70;;;;;;;2.62;100.00;101417.94;5085614;28;20050;-78
2022/04/04 02:25:55;;;;;;;46.35;43.05;;;;;;;2.93;100.00;101409.94;5094224;28;20101;-78
2022/04/04 02:28:22;;;;;;;46.88;43.58;;;;;;;3.26;100.00;101418.31;5090979;28;20109;-78
2022/04/04 02:30:50;;;;;;;55.70;51.67;;;;;;;3.97;100.00;101420.47;5085953;28;20041;-78
2022/04/04 02:33:19;;;;;;;54.13;50.17;;;;;;;2.89;100.00;101419.88;5088355;28;20056;-78
2022/04/04 02:35:47;;;;;;;60.05;55.78;;;;;;;2.23;100.00;101427.53;5092974;28;20044;-78
2022/04/04 02:38:14;;;;;;;60.45;56.17;;;;;;;3.29;100.00;101428.53;5093598;28;20044;-78
2022/04/04 02:40:41;;;;;;;52.95;49.03;;;;;;;2.58;100.00;101424.44;5093451;28;20108;-78
2022/04/04 02:43:08;;;;;;;45.97;42.47;;;;;;;2.46;100.00;101425.53;5093266;28;20094;-78
2022/04/04 02:45:36;;;;;;;43.92;40.67;;;;;;;2.64;100.00;101421.25;5094341;28;20568;-78
2022/04/04 02:48:04;;;;;;;46.58;43.05;;;;;;;3.13;100.00;101424.69;5093416;28;20048;-79
2022/04/04 02:50:32;;;;;;;43.15;39.65;;;;;;;2.70;100.00;101425.97;5093910;28;20040;-78
2022/04/04 02:52:59;;;;;;;47.22;43.70;;;;;;;2.86;100.00;101430.66;5093709;28;20051;-79
2022/04/04 02:58:10;;;;;;;54.45;50.10;;;;;;;2.52;100.00;101440.72;5084230;28;20055;-78
2022/04/04 03:00:37;;;;;;;46.15;43.28;;;;;;;3.10;100.00;101442.53;5092345;28;20127;-79
2022/04/04 03:03:03;;;;;;;54.63;50.50;;;;;;;2.51;100.00;101445.13;5092569;28;20101;-78
2022/04/04 03:05:36;;;;;;;58.67;54.22;;;;;;;2.74;100.00;101450.94;5094406;28;20113;-78
2022/04/04 03:08:04;;;;;;;52.20;47.97;;;;;;;2.05;100.00;101443.88;5093526;28;20090;-78
2022/04/04 03:10:31;;;;;;;56.22;52.03;;;;;;;2.05;100.00;101441.25;5085517;28;20123;-78
2022/04/04 03:12:59;;;;;;;52.70;48.47;;;;;;;2.26;100.00;101446.44;5093347;28;20048;-78
2022/04/04 03:15:27;;;;;;;52.17;47.90;;;;;;;1.97;100.00;101446.34;5090047;28;20048;-78
2022/04/04 03:17:55;;;;;;;51.63;47.70;;;;;;;2.34;100.00;101450.19;5084333;28;20560;-79
2022/04/04 03:20:24;;;;;;;50.50;46.28;;;;;;;4.14;100.00;101443.34;5087946;28;20040;-79
2022/04/04 03:22:54;;;;;;;50.58;46.42;;;;;;;2.61;100.00;101439.06;5084607;28;20479;-79
2022/04/04 03:25:21;;;;;;;50.28;46.10;;;;;;;2.45;100.00;101443.06;5090707;28;20109;-79
2022/04/04 03:27:48;;;;;;;55.00;50.70;;;;;;;2.68;100.00;101445.41;5090028;28;20599;-79
2022/04/04 03:30:18;;;;;;;54.80;50.50;;;;;;;2.19;100.00;101444.50;5087880;28;20040;-78
2022/04/04 03:32:45;;;;;;;50.88;46.78;;;;;;;2.48;100.00;101449.78;5092071;28;20094;-79
2022/04/04 03:35:14;;;;;;;50.58;46.40;;;;;;;2.29;100.00;101453.22;5090679;28;20153;-79
2022/04/04 03:37:42;;;;;;;48.15;44.25;;;;;;;2.71;100.00;101455.63;5077148;28;20496;-79
2022/04/04 03:40:13;;;;;;;46.90;42.92;;;;;;;2.29;100.00;101446.16;5090823;28;20044;-79
2022/04/04 03:42:40;;;;;;;51.33;46.92;;;;;;;2.45;100.00;101464.03;5092455;28;20431;-79
2022/04/04 03:45:08;;;;;;;50.83;46.45;;;;;;;2.19;100.00;101461.06;5091771;28;20129;-79
2022/04/04 03:47:35;;;;;;;48.63;44.33;;;;;;;2.20;100.00;101459.25;5092109;28;20047;-79
2022/04/04 03:50:01;;;;;;;43.35;39.78;;;;;;;2.10;100.00;101463.63;5093407;28;20044;-79
2022/04/04 03:52:29;;;;;;;44.22;40.45;;;;;;;2.82;100.00;101465.19;5093404;28;20055;-78
2022/04/04 03:54:56;;;;;;;42.45;38.92;;;;;;;2.45;100.00;101476.28;5092400;28;20048;-79
2022/04/04 03:57:24;;;;;;;38.35;35.50;;;;;;;4.45;100.00;101482.47;5089676;28;20477;-79
2022/04/04 03:59:51;;;;;;;43.08;39.42;;;;;;;3.02;100.00;101489.63;5087836;28;20117;-79
2022/04/04 04:02:17;;;;;;;46.42;42.25;;;;;;;2.33;100.00;101493.09;5092138;28;20079;-78
2022/04/04 04:04:44;;;;;;;40.78;37.60;;;;;;;3.29;100.00;101491.56;5092858;28;20047;-79
2022/04/04 04:07:15;;;;;;;47.92;43.63;;;;;;;2.04;100.00;101493.81;5092393;28;20048;-79
2022/04/04 04:09:42;;;;;;;53.92;48.38;;;;;;;1.90;100.00;101505.47;5090669;28;20101;-79
2022/04/04 04:12:10;;;;;;;50.40;45.63;;;;;;;2.12;100.00;101493.16;5092733;28;20048;-78
2022/04/04 04:14:38;;;;;;;53.05;47.97;;;;;;;2.07;100.00;101498.81;5092363;28;20117;-79
2022/04/04 04:17:06;;;;;;;47.22;42.90;;;;;;;2.58;100.00;101495.25;5092707;28;20059;-79
2022/04/04 04:22:17;;;;;;;43.13;39.38;;;;;;;2.95;100.00;101503.31;5092615;28;20108;-79
2022/04/04 04:24:44;;;;;;;48.22;44.13;;;;;;;2.63;100.00;101516.66;5092797;28;20112;-79
2022/04/04 04:27:11;;;;;;;37.28;34.65;;;;;;;3.96;100.00;101519.50;5092426;28;20127;-79
2022/04/04 04:29:39;;;;;;;47.97;43.38;;;;;;;2.37;100.00;101512.84;5091092;28;20097;-78
2022/04/04 04:32:07;;;;;;;45.42;41.53;;;;;;;2.95;100.00;101519.06;5091437;28;20530;-79
2022/04/04 04:34:34;;;;;;;38.78;35.55;;;;;;;3.02;100.00;101521.13;5092541;28;20087;-79
2022/04/04 04:37:01;;;;;;;40.50;36.97;;;;;;;2.53;100.00;101526.28;5093076;28;20044;-79
2022/04/04 04:39:28;;;;;;;44.10;40.20;;;;;;;2.65;100.00;101530.47;5092199;28;20113;-79
2022/04/04 04:41:55;;;;;;;46.30;42.13;;;;;;;2.64;100.00;101535.84;5091682;28;20499;-79
2022/04/04 04:44:23;;;;;;;42.80;39.03;;;;;;;3.36;100.00;101530.28;5092027;28;20076;-80
2022/04/04 04:46:52;;;;;;;41.28;37.80;;;;;;;2.91;100.00;101543.09;5089104;28;20460;-79
2022/04/04 04:49:19;;;;;;;45.75;41.95;;;;;;;3.35;100.00;101543.53;5085905;28;20044;-79
2022/04/04 04:51:46;;;;;;;47.92;43.95;;;;;;;2.74;100.00;101545.38;5081292;28;20090;-79
2022/04/04 04:54:13;;;;;;;47.45;43.30;;;;;;;2.64;100.00;101544.53;5041845;28;20049;-79
2022/04/04 04:56:40;;;;;;;47.95;43.75;;;;;;;2.64;100.00;101547.16;5086967;28;20052;-79
2022/04/04 04:59:06;;;;;;;44.60;40.72;;;;;;;3.67;100.00;101551.94;5091094;28;20040;-79
2022/04/04 05:01:33;;;;;;;50.40;45.78;;;;;;;3.81;100.00;101555.94;5091087;28;20051;-79
2022/04/04 05:04:01;;;;;;;43.50;39.50;;;;;;;3.11;100.00;101554.44;5092131;28;20044;-79
2022/04/04 05:06:28;;;;;;;45.38;41.60;;;;;;;3.28;100.00;101558.19;5092181;28;20051;-79
2022/04/04 05:08:58;;;;;;;46.20;42.33;;;;;;;3.21;100.00;101556.09;5091907;28;20048;-79
2022/04/04 05:11:24;;;;;;;49.60;45.15;;;;;;;3.02;100.00;101556.06;5090748;28;20098;-79
2022/04/04 05:13:51;;;;;;;44.10;39.75;;;;;;;3.96;100.00;101566.00;5091464;28;20044;-79
2022/04/04 05:16:18;;;;;;;43.47;39.63;;;;;;;3.32;100.00;101563.00;5091647;28;20469;-79
2022/04/04 05:18:45;;;;;;;41.80;38.10;;;;;;;3.42;100.00;101571.75;5090485;28;20048;-79
2022/04/04 05:21:13;;;;;;;43.28;39.38;;;;;;;3.30;100.00;101566.72;5074633;28;20045;-79
2022/04/04 05:23:41;;;;;;;47.75;43.47;;;;;;;2.71;100.00;101578.94;5083500;28;20044;-79
2022/04/04 05:26:08;;;;;;;45.85;41.53;;;;;;;3.14;100.00;101585.66;5087900;28;20401;-79
2022/04/04 05:28:35;;;;;;;41.13;37.65;;;;;;;3.33;100.00;101590.09;5087958;28;20132;-80
2022/04/04 05:31:04;;;;;;;40.20;36.40;;;;;;;3.41;100.00;101590.25;5086121;28;20484;-79
2022/04/04 05:33:31;;;;;;;43.20;39.38;;;;;;;3.05;100.00;101596.97;5089213;28;20047;-79
2022/04/04 05:35:58;;;;;;;39.67;36.55;;;;;;;3.20;100.00;101593.00;5091985;28;20109;-79
2022/04/04 05:38:26;;;;;;;39.28;35.70;;;;;;;4.16;100.00;101593.91;5091694;28;20109;-79
2022/04/04 05:40:53;;;;;;;41.58;38.03;;;;;;;3.57;100.00;101606.31;5090713;28;20499;-79
2022/04/04 05:43:20;;;;;;;34.92;32.42;;;;;;;5.95;100.00;101599.47;5090551;28;20128;-79
2022/04/04 05:45:49;;;;;;;38.67;35.63;;;;;;;4.85;100.00;101594.47;5091303;28;20093;-80
2022/04/04 05:48:15;;;;;;;42.70;38.97;;;;;;;3.61;100.00;101601.59;5084662;28;20125;-79
2022/04/04 05:50:42;;;;;;;39.67;36.35;;;;;;;5.40;100.00;101600.47;5090918;28;20109;-79
2022/04/04 05:53:10;;;;;;;40.88;37.67;;;;;;;3.57;100.00;101608.06;5091575;28;20048;-79
2022/04/04 05:55:38;;;;;;;42.20;38.75;;;;;;;5.38;100.00;101615.59;5091467;28;20517;-79
2022/04/04 05:58:05;;;;;;;39.20;36.28;;;;;;;5.56;100.00;101620.88;5085187;28;20044;-79
2022/04/04 06:00:32;;;;;;;42.70;39.50;;;;;;;3.95;100.00;101619.53;5092680;28;20493;-79
2022/04/04 06:02:58;;;;;;;40.50;36.90;;;;;;;4.20;100.00;101626.00;5090572;28;20051;-79
2022/04/04 06:05:25;;;;;;;38.95;35.72;;;;;;;5.88;100.00;101622.13;5094035;28;20063;-79
2022/04/04 06:07:52;;;;;;;36.60;33.53;;;;;;;5.73;100.00;101620.03;5095326;28;20048;-79
2022/04/04 06:10:20;;;;;;;42.30;39.03;;;;;;;4.58;100.00;101625.06;5093998;28;20199;-79
2022/04/04 06:12:48;;;;;;;40.88;37.50;;;;;;;5.31;100.00;101621.63;5093995;28;20084;-79
2022/04/04 06:15:15;;;;;;;36.80;34.05;;;;;;;5.25;100.00;101615.16;5089521;28;20048;-79
2022/04/04 06:17:43;;;;;;;36.80;33.53;;;;;;;6.50;100.00;101617.63;5091240;28;20072;-79
2022/04/04 06:20:11;;;;;;;34.83;32.30;;;;;;;7.63;100.00;101625.25;5093928;28;20040;-80
2022/04/04 06:22:39;;;;;;;43.67;40.53;;;;;;;7.93;100.00;101631.69;5093191;28;20047;-80
2022/04/04 06:25:08;;;;;;;44.95;41.47;;;;;;;6.35;100.00;101632.38;5088887;28;20040;-79
2022/04/04 06:27:35;;;;;;;42.47;39.17;;;;;;;5.54;100.00;101625.47;5087467;28;20113;-79
2022/04/04 06:30:04;;;;;;;43.30;39.90;;;;;;;6.21;100.00;101625.06;5081114;28;20044;-79
2022/04/04 06:32:31;;;;;;;41.60;38.30;;;;;;;4.54;100.00;101631.59;5085916;28;20080;-79
2022/04/04 06:34:57;;;;;;;42.50;39.25;;;;;;;5.60;100.00;101631.94;5092575;28;20541;-79
2022/04/04 06:37:24;;;;;;;44.22;40.55;;;;;;;5.66;100.00;101632.19;5094480;28;20044;-80
2022/04/04 06:39:51;;;;;;;39.08;35.97;;;;;;;6.10;100.00;101640.13;5094671;28;20048;-79
2022/04/04 06:42:19;;;;;;;48.50;44.80;;;;;;;5.62;100.00;101645.78;5094077;28;20060;-79
2022/04/04 06:44:46;;;;;;;47.03;43.40;;;;;;;5.49;100.00;101651.44;5094537;28;20094;-79
2022/04/04 06:47:14;;;;;;;44.85;41.25;;;;;;;4.81;100.00;101649.19;5094297;28;20052;-79
2022/04/04 06:49:41;;;;;;;38.15;35.33;;;;;;;6.00;100.00;101651.78;5093912;28;20131;-79
2022/04/04 06:52:08;;;;;;;41.63;38.30;;;;;;;6.43;100.00;101659.66;5093898;28;20119;-79
2022/04/04 06:54:35;;;;;;;44.10;40.65;;;;;;;4.67;100.00;101658.41;5094727;28;20123;-79
2022/04/04 06:57:02;;;;;;;44.97;41.50;;;;;;;4.74;100.00;101653.38;5094226;28;20101;-79
2022/04/04 06:59:30;;;;;;;44.42;41.03;;;;;;;5.28;100.00;101654.34;5093983;28;20048;-79
2022/04/04 07:01:57;;;;;;;43.47;40.03;;;;;;;5.25;100.00;101652.03;5094279;28;20048;-79
2022/04/04 07:04:25;;;;;;;39.95;36.75;;;;;;;6.53;100.00;101651.59;5094369;28;20131;-79
2022/04/04 07:06:52;;;;;;;44.20;40.85;;;;;;;6.57;100.00;101652.16;5094669;28;20052;-79
2022/04/04 07:09:18;;;;;;;45.63;42.42;;;;;;;5.56;100.00;101659.56;5093389;28;20048;-79
2022/04/04 07:11:47;;;;;;;45.33;42.05;;;;;;;5.86;100.00;101658.38;5094327;28;20044;-79
2022/04/04 07:14:14;;;;;;;38.50;36.03;;;;;;;7.26;100.00;101651.13;5089714;28;20127;-79
2022/04/04 07:16:41;;;;;;;39.55;36.72;;;;;;;7.49;100.00;101646.03;5093412;28;20048;-79
2022/04/04 07:19:09;;;;;;;42.33;39.35;;;;;;;7.18;100.00;101647.63;5093877;28;20051;-80
2022/04/04 07:21:37;;;;;;;41.50;38.38;;;;;;;6.74;100.00;101655.69;5095045;28;20494;-79
2022/04/04 07:24:05;;;;;;;37.55;35.30;;;;;;;7.37;100.00;101657.91;5093442;28;20093;-79
2022/04/04 07:26:31;;;;;;;42.10;39.33;;;;;;;8.20;100.00;101662.22;5093454;28;20082;-79
2022/04/04 07:28:58;;;;;;;40.25;37.55;;;;;;;8.22;100.00;101655.78;5093547;28;20099;-79
2022/04/04 07:31:25;;;;;;;41.45;38.35;;;;;;;7.11;100.00;101671.22;5093637;28;20070;-79
2022/04/04 07:33:52;;;;;;;42.50;39.70;;;;;;;7.13;100.00;101665.75;5093544;28;20059;-80
2022/04/04 07:36:19;;;;;;;40.20;37.70;;;;;;;7.20;100.00;101674.69;5094102;28;20122;-79
2022/04/04 07:38:47;;;;;;;42.83;40.05;;;;;;;6.38;100.00;101669.88;5093312;28;20507;-79
2022/04/04 07:41:14;;;;;;;47.25;43.97;;;;;;;6.62;100.00;101668.31;5093045;28;20052;-79
2022/04/04 07:43:40;;;;;;;46.33;42.95;;;;;;;6.72;100.00;101662.94;5093477;28;20040;-80
2022/04/04 07:46:07;;;;;;;38.95;35.97;;;;;;;7.36;100.00;101666.81;5093688;28;20051;-79
2022/04/04 07:48:34;;;;;;;35.55;33.03;;;;;;;8.87;100.00;101688.47;5092704;28;20511;-79
2022/04/04 07:51:01;;;;;;;41.10;38.60;;;;;;;7.83;100.00;101679.44;5094169;28;20082;-79
2022/04/04 07:53:27;;;;;;;43.33;40.53;;;;;;;8.60;100.00;101679.91;5093514;28;20109;-81
2022/04/04 07:55:55;;;;;;;41.38;38.97;;;;;;;9.28;100.00;101689.09;5093178;28;20055;-80
2022/04/04 07:58:22;;;;;;;41.40;38.88;;;;;;;8.71;100.00;101684.88;5092860;28;20508;-80
2022/04/04 08:00:49;;;;;;;38.58;35.97;;;;;;;7.89;100.00;101683.25;5093019;28;20056;-79
2022/04/04 08:03:16;;;;;;;39.17;34.35;;;;;;;8.83;100.00;101695.06;5093159;28;20105;-80
2022/04/04 08:05:43;;;;;;;37.00;34.80;;;;;;;7.58;100.00;101686.53;5091979;28;20460;-79
2022/04/04 08:08:09;;;;;;;43.95;41.08;;;;;;;8.07;100.00;101683.91;5092963;28;20044;-79
2022/04/04 08:10:36;;;;;;;42.88;39.95;;;;;;;6.97;100.00;101690.31;5092989;28;20052;-79
2022/04/04 08:13:05;;;;;;;40.65;38.05;;;;;;;8.27;100.00;101685.22;5092891;28;20102;-79
2022/04/04 08:15:32;;;;;;;39.92;37.53;;;;;;;8.84;100.00;101692.28;5092788;28;20048;-79
2022/04/04 08:17:58;;;;;;;38.55;36.05;;;;;;;7.75;96.49;101690.03;5092946;28;20048;-79
2022/04/04 08:20:25;;;;;;;39.05;36.45;;;;;;;8.63;94.85;101687.53;5092478;28;20051;-79
2022/04/04 08:22:52;;;;;;;39.38;36.75;;;;;;;8.64;97.44;101691.81;5092919;28;20055;-79
2022/04/04 08:25:19;;;;;;;46.78;43.92;;;;;;;8.54;85.06;101683.25;5092343;28;20040;-79
2022/04/04 08:27:47;;;;;;;37.58;34.95;;;;;;;8.12;87.48;101686.91;5092178;28;20500;-79
2022/04/04 08:30:17;;;;;;;42.92;40.40;;;;;;;9.08;89.49;101693.19;5092971;28;20101;-80
2022/04/04 08:32:44;;;;;;;46.03;43.13;;;;;;;8.61;94.37;101684.22;5092438;28;20048;-80
2022/04/04 08:35:13;;;;;;;42.55;39.72;;;;;;;7.98;93.84;101680.44;5092388;28;20473;-79
2022/04/04 08:37:41;;;;;;;37.22;34.95;;;;;;;8.38;99.42;101676.16;5076328;28;20101;-79
2022/04/04 08:40:11;;;;;;;47.80;44.70;;;;;;;8.90;95.65;101674.88;5092439;28;20083;-79
2022/04/04 08:42:38;;;;;;;43.38;40.67;;;;;;;8.34;88.72;101684.56;5079764;28;20060;-79
2022/04/04 08:45:06;;;;;;;43.53;40.70;;;;;;;8.24;90.66;101684.75;5087593;28;20044;-79
2022/04/04 08:47:35;;;;;;;41.92;39.33;;;;;;;8.53;84.09;101684.22;5091580;28;20469;-79
2022/04/04 08:50:02;;;;;;;41.00;38.20;;;;;;;9.02;85.83;101676.16;5082031;28;20103;-79
2022/04/04 08:52:29;;;;;;;44.95;41.97;;;;;;;9.06;90.21;101680.09;5086579;28;20047;-79
2022/04/04 08:54:56;;;;;;;47.58;44.35;;;;;;;9.01;85.89;101678.94;5085642;28;20101;-80
2022/04/04 08:57:23;;;;;;;51.95;48.60;;;;;;;9.77;87.60;101669.38;5090018;28;20093;-80
2022/04/04 08:59:50;;;;;;;47.15;43.80;;;;;;;8.09;81.55;101668.72;5091951;28;20443;-80
2022/04/04 09:02:17;;;;;;;48.90;45.35;;;;;;;9.86;79.29;101653.25;5090613;28;20055;-80
2022/04/04 09:04:51;;;;;;;47.42;44.08;;;;;;;8.64;81.57;101652.09;5092144;28;20044;-79
2022/04/04 09:07:20;;;;;;;46.47;43.20;;;;;;;8.69;86.52;101654.25;5086823;28;20051;-79
2022/04/04 09:09:50;;;;;;;49.00;45.55;;;;;;;10.20;83.38;101637.88;5091634;28;20059;-79
2022/04/04 09:12:19;;;;;;;46.45;43.35;;;;;;;8.81;78.03;101639.63;5087181;28;20048;-79
2022/04/04 09:14:48;;;;;;;42.92;39.72;;;;;;;8.77;77.27;101640.94;5087340;28;20048;-79
2022/04/04 09:17:17;;;;;;;43.08;39.97;;;;;;;8.59;75.46;101635.88;5090916;28;20503;-79
2022/04/04 09:19:45;;;;;;;50.25;47.13;;;;;;;10.27;89.78;101633.50;5091320;28;20052;-80
2022/04/04 09:22:14;;;;;;;47.60;44.40;;;;;;;9.33;78.30;101627.59;5091544;28;20044;-79
2022/04/04 09:24:50;;;;;;;45.45;42.53;;;;;;;9.17;78.35;101623.22;5088866;28;20520;-80
2022/04/04 09:27:22;;;;;;;48.03;44.72;;;;;;;9.37;84.12;101620.94;5081948;28;20051;-79
2022/04/04 09:29:51;;;;;;;47.90;44.85;;;;;;;9.45;73.18;101623.53;5082340;28;20052;-79
2022/04/04 09:32:18;;;;;;;46.42;43.13;;;;;;;9.62;75.04;101619.78;5083629;28;20128;-79
2022/04/04 09:34:56;;;;;;;48.80;45.63;;;;;;;9.93;69.86;101607.44;5088014;28;20101;-79
2022/04/04 09:37:24;;;;;;;49.55;46.15;;;;;;;9.37;74.85;101608.50;5074497;28;20100;-79
2022/04/04 09:39:52;;;;;;;47.35;44.25;;;;;;;10.41;77.43;101608.78;5091361;28;20059;-79
2022/04/04 09:42:20;;;;;;;42.40;39.45;;;;;;;9.99;73.16;101604.06;5088886;28;20473;-79
2022/04/04 09:45:01;;;;;;;44.60;41.28;;;;;;;9.49;76.02;101598.31;5092115;28;20546;-79
2022/04/04 09:47:48;;;;;;;49.25;46.05;;;;;;;10.35;74.43;101590.09;5091697;28;20052;-79
2022/04/04 09:50:32;;;;;;;42.28;39.28;;;;;;;10.00;74.23;101585.28;5090486;28;20513;-79
2022/04/04 09:52:59;;;;;;;41.75;38.75;;;;;;;9.86;74.93;101591.38;5088659;28;20052;-79
2022/04/04 09:55:30;;;;;;;40.67;37.85;;;;;;;10.70;72.09;101583.22;5088664;28;20426;-79
2022/04/04 09:57:59;;;;;;;42.35;39.28;;;;;;;9.40;76.16;101586.13;5089100;28;20074;-79
2022/04/04 10:00:26;;;;;;;43.08;40.10;;;;;;;9.17;72.88;101583.47;5091530;28;20580;-79
2022/04/04 10:02:56;;;;;;;46.90;43.83;;;;;;;9.55;69.89;101581.69;5090044;28;20136;-79
2022/04/04 10:05:25;;;;;;;40.92;38.15;;;;;;;9.04;70.82;101584.03;5091517;28;20508;-79
2022/04/04 10:07:56;;;;;;;47.28;44.17;;;;;;;9.38;78.38;101573.06;5091310;28;20139;-79
2022/04/04 10:10:27;;;;;;;48.38;45.00;;;;;;;10.84;77.86;101577.06;5090078;28;20052;-79
2022/04/04 10:12:54;;;;;;;47.75;44.75;;;;;;;8.88;70.03;101579.66;5090548;28;20048;-78
2022/04/04 10:15:22;;;;;;;52.55;49.08;;;;;;;9.77;75.08;101576.53;5088431;28;21226;-79
2022/04/04 10:17:50;;;;;;;51.20;47.13;;;;;;;9.04;72.66;101575.25;5089207;28;20048;-79
2022/04/04 10:20:17;;;;;;;43.60;40.70;;;;;;;11.16;72.82;101561.63;5086658;28;20479;-80
2022/04/04 10:22:45;;;;;;;44.30;41.50;;;;;;;9.57;71.28;101568.28;5090794;28;20048;-79
2022/04/04 10:25:16;;;;;;;45.13;42.22;;;;;;;10.51;64.04;101573.97;5088082;28;20591;-79
2022/04/04 10:27:47;;;;;;;46.88;43.83;;;;;;;10.48;66.71;101553.09;5086661;28;20113;-78
2022/04/04 10:30:16;;;;;;;45.03;42.08;;;;;;;10.67;65.49;101570.28;5089566;28;20044;-79
2022/04/04 10:32:51;;;;;;;40.13;37.58;;;;;;;10.31;66.68;101563.91;5089044;28;20043;-79
2022/04/04 10:35:23;;;;;;;41.60;38.90;;;;;;;9.72;63.74;101557.69;5089667;28;20044;-78
2022/04/04 10:37:50;;;;;;;41.30;38.33;;;;;;;9.29;62.36;101557.34;5094792;28;20510;-79
2022/04/04 10:40:25;;;;;;;41.90;39.20;;;;;;;9.36;64.00;101563.63;5095604;28;20048;-80
2022/04/04 10:43:20;;;;;;;39.05;36.65;;;;;;;11.00;82.42;101552.06;5086728;28;20143;-80
2022/04/04 10:45:58;;;;;;;39.83;37.35;;;;;;;9.71;66.56;101561.34;5046026;28;20040;-78
2022/04/04 10:48:31;;;;;;;39.90;37.30;;;;;;;8.86;68.06;101554.31;5085408;28;20048;-79
2022/04/04 10:51:12;;;;;;;43.88;41.08;;;;;;;9.18;66.72;101554.13;5091310;28;20052;-79
2022/04/04 10:53:45;;;;;;;41.10;38.65;;;;;;;9.32;66.76;101552.56;5093190;28;20087;-78
2022/04/04 10:56:18;;;;;;;41.45;38.80;;;;;;;8.92;70.50;101553.63;5090054;28;20040;-79
2022/04/04 10:58:45;;;;;;;45.53;42.67;;;;;;;8.48;68.05;101556.84;5089544;28;20075;-79
2022/04/04 11:01:16;;;;;;;42.72;39.75;;;;;;;8.99;69.49;101541.34;5083467;28;20093;-79
2022/04/04 11:03:57;;;;;;;41.25;38.35;;;;;;;9.11;69.88;101541.78;5088053;28;20050;-78
2022/04/04 11:09:32;;;;;;;47.50;44.60;;;;;;;8.85;66.07;101528.84;5093587;28;20114;-79
2022/04/04 11:12:12;;;;;;;43.15;40.42;;;;;;;9.68;68.99;101530.69;5089838;28;20051;-79
2022/04/04 11:14:54;;;;;;;45.53;42.47;;;;;;;9.60;73.68;101528.94;5085457;28;20045;-79
2022/04/04 11:17:30;;;;;;;45.58;42.80;;;;;;;9.83;66.56;101526.25;5081248;28;20040;-79
2022/04/04 11:20:04;;;;;;;43.75;40.70;;;;;;;10.02;67.32;101529.38;5078997;28;20080;-79
2022/04/04 11:22:33;;;;;;;44.17;41.17;;;;;;;9.90;66.98;101522.88;5080877;28;20469;-79
2022/04/04 11:25:03;;;;;;;40.63;37.90;;;;;;;9.63;64.51;101520.63;5079634;28;20051;-78